SnowmanRWIS Atmospheric Data: 05/15/2019 Summary  Detailed Graphs  Station List

  Temperature     Wind Precipitation Visibility
Timestamp Air Wet
Bulb
Dew-
point
24-hr
Max
24-hr
Min
Relative
Humidity
Atmospheric
Pressure
Avg
Speed
Avg
Dir
Spot
Speed
Spot
Dir
Max
Speed
Max
Dir
  Rate Situation Start End 1 hr 3 hr 6 hr 12 hr 24 hr   Situation
Date Time °F °F °F °F °F % in Hg mph ° mph ° mph ° Y/N in/hr text Date Time Date Time in in in in in mi text
05/15/2019 12:03 AM 48.20 45.14 42.08 59.72 46.04 79.0 Not Reported 0.22 E 0.89 E 2.01 NE No 0.000 No Precipitation     0.000 0.000 0.000 0.000 0.000 Not Reported Not Reported
05/15/2019 12:08 AM 48.38 45.86 43.34 59.72 46.04 82.0 Not Reported 1.57 E 3.80 S 2.01 NE No 0.000 No Precipitation     0.000 0.000 0.000 0.000 0.000 Not Reported Not Reported
05/15/2019 12:13 AM 48.20 45.50 42.80 59.72 46.58 81.0 Not Reported 3.58 E 1.57 E 4.47 S No 0.000 No Precipitation     0.000 0.000 0.000 0.000 0.000 Not Reported Not Reported
05/15/2019 12:18 AM 48.02 45.68 43.34 59.72 47.12 83.0 Not Reported 3.80 NW 2.68 NW 4.47 S No 0.000 No Precipitation     0.000 0.000 0.000 0.000 0.000 Not Reported Not Reported
05/15/2019 12:23 AM 49.46 45.68 42.08 59.72 47.12 75.0 Not Reported 6.26 W 6.04 NW 6.04 NW No 0.000 No Precipitation     0.000 0.000 0.000 0.000 0.000 Not Reported Not Reported
05/15/2019 12:28 AM 49.46 45.32 41.00 59.72 47.12 72.0 Not Reported 3.80 W 3.36 W 6.04 NW No 0.000 No Precipitation     0.000 0.000 0.000 0.000 0.000 Not Reported Not Reported
05/15/2019 12:33 AM 49.28 45.32 41.18 59.72 47.12 73.0 Not Reported 2.46 SE 0.67 NE 8.72 W No 0.000 No Precipitation     0.000 0.000 0.000 0.000 0.000 Not Reported Not Reported
05/15/2019 12:38 AM 48.74 45.14 41.36 59.72 47.12 75.0 Not Reported 0.89 E 0.89 NE 8.72 W No 0.000 No Precipitation     0.000 0.000 0.000 0.000 0.000 Not Reported Not Reported
05/15/2019 12:43 AM 48.38 44.96 41.54 59.72 47.12 77.0 Not Reported 0.00 E 1.12 E 2.91 S No 0.000 No Precipitation     0.000 0.000 0.000 0.000 0.000 Not Reported Not Reported
05/15/2019 12:48 AM 48.20 44.96 41.72 59.72 47.12 77.0 Not Reported 0.00 N 0.00 NE 2.91 S No 0.000 No Precipitation     0.000 0.000 0.000 0.000 0.000 Not Reported Not Reported
05/15/2019 12:53 AM 48.20 44.96 41.90 59.72 47.12 78.0 Not Reported 0.22 N 0.00 NE 1.12 E No 0.000 No Precipitation     0.000 0.000 0.000 0.000 0.000 Not Reported Not Reported
05/15/2019 12:58 AM 48.02 44.96 41.90 59.72 47.12 79.0 Not Reported 0.00 NE 0.00 NE 1.12 E No 0.000 No Precipitation     0.000 0.000 0.000 0.000 0.000 Not Reported Not Reported
05/15/2019 01:03 AM 48.02 45.14 42.08 59.72 47.12 79.0 Not Reported 1.12 SE 0.00 SE 0.89 SE No 0.000 No Precipitation     0.000 0.000 0.000 0.000 0.000 Not Reported Not Reported
05/15/2019 01:08 AM 47.84 44.60 41.36 59.72 47.12 77.0 Not Reported 0.45 E 0.45 NE 0.89 SE No 0.000 No Precipitation     0.000 0.000 0.000 0.000 0.000 Not Reported Not Reported
05/15/2019 01:13 AM 48.02 44.96 41.72 59.72 47.12 78.0 Not Reported 0.67 NE 1.12 E 1.79 E No 0.000 No Precipitation     0.000 0.000 0.000 0.000 0.000 Not Reported Not Reported
05/15/2019 01:18 AM 47.66 44.78 41.90 59.72 47.12 80.0 Not Reported 0.00 N 0.00 E 1.79 E No 0.000 No Precipitation     0.000 0.000 0.000 0.000 0.000 Not Reported Not Reported
05/15/2019 01:23 AM 47.66 44.78 41.90 59.72 47.12 80.0 Not Reported 0.22 E 0.00 E 1.57 E No 0.000 No Precipitation     0.000 0.000 0.000 0.000 0.000 Not Reported Not Reported
05/15/2019 01:28 AM 47.66 44.60 41.54 59.72 47.12 79.0 Not Reported 0.00 N 0.00 NE 1.57 E No 0.000 No Precipitation     0.000 0.000 0.000 0.000 0.000 Not Reported Not Reported
05/15/2019 01:33 AM 47.66 44.60 41.54 59.72 47.12 79.0 Not Reported 1.79 N 0.22 NE 1.79 N No 0.000 No Precipitation     0.000 0.000 0.000 0.000 0.000 Not Reported Not Reported
05/15/2019 01:38 AM 47.48 44.24 41.00 59.72 47.12 78.0 Not Reported 0.00 N 0.00 E 1.79 N No 0.000 No Precipitation     0.000 0.000 0.000 0.000 0.000 Not Reported Not Reported
05/15/2019 01:43 AM 47.30 44.06 40.64 59.72 47.12 77.0 Not Reported 0.89 N 1.34 N 2.01 N No 0.000 No Precipitation     0.000 0.000 0.000 0.000 0.000 Not Reported Not Reported
05/15/2019 01:48 AM 47.48 44.42 41.36 59.72 47.12 79.0 Not Reported 0.00 N 0.00 N 2.01 N No 0.000 No Precipitation     0.000 0.000 0.000 0.000 0.000 Not Reported Not Reported
05/15/2019 01:53 AM 47.48 44.42 41.54 59.72 47.12 79.0 Not Reported 0.00 N 0.00 N 1.34 NE No 0.000 No Precipitation     0.000 0.000 0.000 0.000 0.000 Not Reported Not Reported
05/15/2019 01:58 AM 47.48 44.42 41.18 59.72 47.12 78.0 Not Reported 0.00 S 0.00 S 1.34 NE No 0.000 No Precipitation     0.000 0.000 0.000 0.000 0.000 Not Reported Not Reported
05/15/2019 02:03 AM 47.48 44.60 41.54 59.72 47.12 79.0 Not Reported 0.00 N 0.00 S 0.67 S No 0.000 No Precipitation     0.000 0.000 0.000 0.000 0.000 Not Reported Not Reported
05/15/2019 02:08 AM 47.48 44.42 41.18 59.72 47.12 78.0 Not Reported 0.00 N 0.00 N 0.67 S No 0.000 No Precipitation     0.000 0.000 0.000 0.000 0.000 Not Reported Not Reported
05/15/2019 02:13 AM 47.30 44.24 41.00 59.72 47.12 78.0 Not Reported 0.00 N 0.00 N 0.67 N No 0.000 No Precipitation     0.000 0.000 0.000 0.000 0.000 Not Reported Not Reported
05/15/2019 02:18 AM 47.30 44.06 40.82 59.72 47.12 78.0 Not Reported 0.00 N 0.00 N 0.67 N No 0.000 No Precipitation     0.000 0.000 0.000 0.000 0.000 Not Reported Not Reported
05/15/2019 02:23 AM 47.30 44.24 41.36 59.72 47.12 79.0 Not Reported 0.00 N 0.00 N 1.12 N No 0.000 No Precipitation     0.000 0.000 0.000 0.000 0.000 Not Reported Not Reported
05/15/2019 02:28 AM 47.30 44.24 41.36 59.72 47.12 79.0 Not Reported 2.46 N 3.13 N 1.12 N No 0.000 No Precipitation     0.000 0.000 0.000 0.000 0.000 Not Reported Not Reported
05/15/2019 02:33 AM 47.12 44.42 41.36 59.72 47.12 80.0 Not Reported 0.45 N 0.00 N 3.13 N No 0.000 No Precipitation     0.000 0.000 0.000 0.000 0.000 Not Reported Not Reported
05/15/2019 02:38 AM 48.02 44.06 40.10 59.72 47.12 73.0 Not Reported 1.79 NE 1.12 NE 3.13 N No 0.000 No Precipitation     0.000 0.000 0.000 0.000 0.000 Not Reported Not Reported
05/15/2019 02:43 AM 48.74 44.78 40.64 59.72 47.12 73.0 Not Reported 1.12 E 0.89 SE 2.46 N No 0.000 No Precipitation     0.000 0.000 0.000 0.000 0.000 Not Reported Not Reported
05/15/2019 02:48 AM 48.56 44.60 40.28 59.72 47.12 73.0 Not Reported 0.45 E 0.00 NE 2.46 N No 0.000 No Precipitation     0.000 0.000 0.000 0.000 0.000 Not Reported Not Reported
05/15/2019 02:53 AM 48.38 44.42 40.46 59.72 47.12 74.0 Not Reported 0.22 N 1.12 N 2.01 SE No 0.000 No Precipitation     0.000 0.000 0.000 0.000 0.000 Not Reported Not Reported
05/15/2019 02:58 AM 48.20 44.24 40.28 59.72 47.12 73.0 Not Reported 1.12 S 0.89 SE 2.01 SE No 0.000 No Precipitation     0.000 0.000 0.000 0.000 0.000 Not Reported Not Reported
05/15/2019 03:03 AM 48.38 44.60 40.64 59.72 47.12 74.0 Not Reported 0.00 N 0.00 NE 1.34 S No 0.000 No Precipitation     0.000 0.000 0.000 0.000 0.000 Not Reported Not Reported
05/15/2019 03:08 AM 48.20 44.42 40.64 59.72 47.12 74.0 Not Reported 0.00 NE 0.00 E 1.34 S No 0.000 No Precipitation     0.000 0.000 0.000 0.000 0.000 Not Reported Not Reported
05/15/2019 03:13 AM 47.66 44.24 40.46 59.72 47.12 75.0 Not Reported 0.45 NE 1.34 NE 0.67 NE No 0.000 No Precipitation     0.000 0.000 0.000 0.000 0.000 Not Reported Not Reported
05/15/2019 03:18 AM 47.66 44.60 41.36 59.72 47.12 78.0 Not Reported 1.12 SE 1.12 SE 0.67 NE No 0.000 No Precipitation     0.000 0.000 0.000 0.000 0.000 Not Reported Not Reported
05/15/2019 03:23 AM 47.30 44.24 41.18 59.72 47.12 79.0 Not Reported 0.45 NE 0.67 NE 1.79 SE No 0.000 No Precipitation     0.000 0.000 0.000 0.000 0.000 Not Reported Not Reported
05/15/2019 03:28 AM 47.12 44.06 40.82 59.72 47.12 78.0 Not Reported 0.67 E 0.67 E 1.79 SE No 0.000 No Precipitation     0.000 0.000 0.000 0.000 0.000 Not Reported Not Reported
05/15/2019 03:33 AM 46.94 44.06 40.82 59.72 46.94 78.0 Not Reported 0.22 E 0.00 E 1.34 E No 0.000 No Precipitation     0.000 0.000 0.000 0.000 0.000 Not Reported Not Reported
05/15/2019 03:38 AM 46.94 43.88 40.82 59.72 46.76 78.0 Not Reported 0.00 E 0.00 E 1.34 E No 0.000 No Precipitation     0.000 0.000 0.000 0.000 0.000 Not Reported Not Reported
05/15/2019 03:43 AM 46.94 44.06 41.00 59.72 46.58 79.0 Not Reported 0.00 E 0.00 E 0.45 E No 0.000 No Precipitation     0.000 0.000 0.000 0.000 0.000 Not Reported Not Reported
05/15/2019 03:48 AM 46.58 43.88 40.82 59.72 46.58 80.0 Not Reported 0.00 E 0.00 E 0.45 E No 0.000 No Precipitation     0.000 0.000 0.000 0.000 0.000 Not Reported Not Reported
05/15/2019 03:53 AM 46.58 43.70 40.64 59.72 46.58 79.0 Not Reported 0.45 NE 1.12 NE 1.79 NE No 0.000 No Precipitation     0.000 0.000 0.000 0.000 0.000 Not Reported Not Reported
05/15/2019 03:58 AM 46.76 43.88 41.00 59.72 46.58 80.0 Not Reported 0.22 E 0.22 E 1.79 NE No 0.000 No Precipitation     0.000 0.000 0.000 0.000 0.000 Not Reported Not Reported
05/15/2019 04:03 AM 46.58 43.88 40.82 59.72 46.58 80.0 Not Reported 0.45 NE 1.79 NE 1.12 NE No 0.000 No Precipitation     0.000 0.000 0.000 0.000 0.000 Not Reported Not Reported
05/15/2019 04:08 AM 46.58 43.88 41.18 59.72 46.58 81.0 Not Reported 0.22 SE 1.34 SE 1.12 NE No 0.000 No Precipitation     0.000 0.000 0.000 0.000 0.000 Not Reported Not Reported
05/15/2019 04:13 AM 46.22 43.70 41.18 59.72 46.22 82.0 Not Reported 0.00 N 0.00 SE 1.79 NE No 0.000 No Precipitation     0.000 0.000 0.000 0.000 0.000 Not Reported Not Reported
05/15/2019 04:18 AM 46.22 43.70 41.18 59.72 46.04 82.0 Not Reported 0.22 NE 0.00 NE 1.79 NE No 0.000 No Precipitation     0.000 0.000 0.000 0.000 0.000 Not Reported Not Reported
05/15/2019 04:23 AM 46.04 43.52 41.00 59.72 46.04 82.0 Not Reported 0.00 N 0.00 SE 0.89 NE No 0.000 No Precipitation     0.000 0.000 0.000 0.000 0.000 Not Reported Not Reported
05/15/2019 04:28 AM 45.86 43.52 41.18 59.72 45.86 83.0 Not Reported 0.45 SW 0.22 SW 0.89 NE No 0.000 No Precipitation     0.000 0.000 0.000 0.000 0.000 Not Reported Not Reported
05/15/2019 04:33 AM 46.04 43.70 41.18 59.72 45.68 83.0 Not Reported 0.00 N 0.00 NW 0.89 SW No 0.000 No Precipitation     0.000 0.000 0.000 0.000 0.000 Not Reported Not Reported
05/15/2019 04:38 AM 46.04 43.52 41.18 59.72 45.68 82.0 Not Reported 0.22 NE 0.67 N 0.89 SW No 0.000 No Precipitation     0.000 0.000 0.000 0.000 0.000 Not Reported Not Reported
05/15/2019 04:43 AM 46.58 43.52 40.46 59.72 45.68 79.0 Not Reported 0.89 E 1.79 NE 0.89 N No 0.000 No Precipitation     0.000 0.000 0.000 0.000 0.000 Not Reported Not Reported
05/15/2019 04:48 AM 46.94 44.06 41.00 59.72 45.68 79.0 Not Reported 1.79 NE 1.57 NE 0.89 N No 0.000 No Precipitation     0.000 0.000 0.000 0.000 0.000 Not Reported Not Reported
05/15/2019 04:53 AM 46.58 44.06 41.36 59.72 45.68 82.0 Not Reported 0.45 SE 1.12 SE 2.46 E No 0.000 No Precipitation     0.000 0.000 0.000 0.000 0.000 Not Reported Not Reported
05/15/2019 04:58 AM 46.04 43.70 41.18 59.72 45.68 83.0 Not Reported 0.00 SE 0.00 SE 2.46 E No 0.000 No Precipitation     0.000 0.000 0.000 0.000 0.000 Not Reported Not Reported
05/15/2019 05:03 AM 45.86 43.52 41.18 59.72 45.68 83.0 Not Reported 0.00 S 1.34 NE 1.34 SE No 0.000 No Precipitation     0.000 0.000 0.000 0.000 0.000 Not Reported Not Reported
05/15/2019 05:08 AM 46.40 44.06 41.90 59.72 45.68 84.0 Not Reported 0.00 SE 0.00 N 1.34 SE No 0.000 No Precipitation     0.000 0.000 0.000 0.000 0.000 Not Reported Not Reported
05/15/2019 05:13 AM 45.86 43.70 41.54 59.72 45.68 85.0 Not Reported 0.67 SE 0.22 NE 2.01 NE No 0.000 No Precipitation     0.000 0.000 0.000 0.000 0.000 Not Reported Not Reported
05/15/2019 05:18 AM 45.50 43.88 42.08 59.72 45.50 87.0 Not Reported 1.79 S 0.89 SE 2.01 NE No 0.000 No Precipitation     0.000 0.000 0.000 0.000 0.000 Not Reported Not Reported
05/15/2019 05:23 AM 45.68 43.88 42.26 59.72 45.50 87.0 Not Reported 0.00 N 0.45 N 2.46 SE No 0.000 No Precipitation     0.000 0.000 0.000 0.000 0.000 Not Reported Not Reported
05/15/2019 05:28 AM 45.50 44.06 42.62 59.72 45.50 89.0 Not Reported 0.67 SE 1.34 SE 2.46 SE No 0.000 No Precipitation     0.000 0.000 0.000 0.000 0.000 Not Reported Not Reported
05/15/2019 05:33 AM 45.32 43.88 42.44 59.72 45.32 89.0 Not Reported 0.00 N 0.00 SE 1.57 E Yes 0.043 Rain Slight 05/14/2019 09:30 PM   0.004 0.004 0.004 0.004 0.004 Not Reported Not Reported
05/15/2019 05:38 AM 45.14 43.88 42.44 59.72 45.14 90.0 Not Reported 0.00 SE 0.00 SE 1.57 E No 0.000 No Precipitation 05/14/2019 09:30 PM 05/14/2019 09:35 PM 0.004 0.004 0.004 0.004 0.004 Not Reported Not Reported
05/15/2019 05:43 AM 45.14 43.88 42.44 59.72 44.96 90.0 Not Reported 0.22 E 0.67 SE 1.57 E No 0.000 No Precipitation 05/14/2019 09:30 PM 05/14/2019 09:35 PM 0.004 0.004 0.004 0.004 0.004 Not Reported Not Reported
05/15/2019 05:48 AM 44.78 43.52 42.44 59.72 44.78 91.0 Not Reported 0.22 S 0.00 S 1.57 E No 0.000 No Precipitation 05/14/2019 09:30 PM 05/14/2019 09:35 PM 0.004 0.004 0.004 0.004 0.004 Not Reported Not Reported
05/15/2019 05:53 AM 44.78 43.52 42.44 59.72 44.60 91.0 Not Reported 0.22 SE 0.89 S 1.34 S No 0.000 No Precipitation 05/14/2019 09:30 PM 05/14/2019 09:35 PM 0.004 0.004 0.004 0.004 0.004 Not Reported Not Reported
05/15/2019 05:58 AM 44.78 43.70 42.62 59.72 44.60 91.0 Not Reported 0.22 SE 0.00 NE 1.34 S No 0.000 No Precipitation 05/14/2019 09:30 PM 05/14/2019 09:35 PM 0.004 0.004 0.004 0.004 0.004 Not Reported Not Reported
05/15/2019 06:03 AM 44.78 43.70 42.62 59.72 44.60 92.0 Not Reported 0.00 N 0.00 NE 0.89 S No 0.000 No Precipitation 05/14/2019 09:30 PM 05/14/2019 09:35 PM 0.004 0.004 0.004 0.004 0.004 Not Reported Not Reported
05/15/2019 06:08 AM 44.78 43.70 42.44 59.72 44.60 91.0 Not Reported 0.22 SE 0.22 NE 0.89 S No 0.000 No Precipitation 05/14/2019 09:30 PM 05/14/2019 09:35 PM 0.004 0.004 0.004 0.004 0.004 Not Reported Not Reported
05/15/2019 06:13 AM 45.14 44.06 42.80 59.72 44.60 91.0 Not Reported 0.00 N 0.00 N 2.46 S No 0.000 No Precipitation 05/14/2019 09:30 PM 05/14/2019 09:35 PM 0.004 0.004 0.004 0.004 0.004 Not Reported Not Reported
05/15/2019 06:18 AM 45.14 43.88 42.80 59.72 44.60 91.0 Not Reported 0.00 S 0.67 SE 2.46 S No 0.000 No Precipitation 05/14/2019 09:30 PM 05/14/2019 09:35 PM 0.004 0.004 0.004 0.004 0.004 Not Reported Not Reported
05/15/2019 06:23 AM 45.32 44.24 42.98 59.72 44.60 91.0 Not Reported 0.00 N 0.00 SE 0.67 SE No 0.000 No Precipitation 05/14/2019 09:30 PM 05/14/2019 09:35 PM 0.004 0.004 0.004 0.004 0.004 Not Reported Not Reported
05/15/2019 06:28 AM 45.14 43.88 42.80 59.72 44.60 91.0 Not Reported 0.89 SE 1.12 S 0.67 SE No 0.000 No Precipitation 05/14/2019 09:30 PM 05/14/2019 09:35 PM 0.004 0.004 0.004 0.004 0.004 Not Reported Not Reported
05/15/2019 06:33 AM 45.32 44.06 42.80 59.72 44.60 90.0 Not Reported 0.67 SE 0.00 E 2.68 N No 0.000 No Precipitation 05/14/2019 09:30 PM 05/14/2019 09:35 PM 0.000 0.004 0.004 0.004 0.004 Not Reported Not Reported
05/15/2019 06:38 AM 45.14 43.88 42.80 59.72 44.60 91.0 Not Reported 0.00 NE 0.00 NE 2.68 N No 0.000 No Precipitation 05/14/2019 09:30 PM 05/14/2019 09:35 PM 0.000 0.004 0.004 0.004 0.004 Not Reported Not Reported
05/15/2019 06:43 AM 44.96 43.88 42.62 59.72 44.60 91.0 Not Reported 0.22 NE 0.22 E 1.57 S No 0.000 No Precipitation 05/14/2019 09:30 PM 05/14/2019 09:35 PM 0.000 0.004 0.004 0.004 0.004 Not Reported Not Reported
05/15/2019 06:48 AM 44.96 43.88 42.62 59.72 44.60 91.0 Not Reported 0.00 E 0.00 E 1.57 S No 0.000 No Precipitation 05/14/2019 09:30 PM 05/14/2019 09:35 PM 0.000 0.004 0.004 0.004 0.004 Not Reported Not Reported
05/15/2019 06:53 AM 44.78 43.70 42.62 59.72 44.60 92.0 Not Reported 0.00 N 0.00 E 0.89 E No 0.000 No Precipitation 05/14/2019 09:30 PM 05/14/2019 09:35 PM 0.000 0.004 0.004 0.004 0.004 Not Reported Not Reported
05/15/2019 06:58 AM 44.78 43.70 42.62 59.72 44.60 92.0 Not Reported 0.00 N 0.00 E 0.89 E No 0.000 No Precipitation 05/14/2019 09:30 PM 05/14/2019 09:35 PM 0.000 0.004 0.004 0.004 0.004 Not Reported Not Reported
05/15/2019 07:03 AM 44.96 44.06 42.98 59.72 44.60 92.0 Not Reported 0.89 NE 0.00 E 0.89 NE No 0.000 No Precipitation 05/14/2019 09:30 PM 05/14/2019 09:35 PM 0.000 0.004 0.004 0.004 0.004 Not Reported Not Reported
05/15/2019 07:08 AM 44.78 43.70 42.62 59.72 44.60 92.0 Not Reported 0.00 N 0.00 E 0.89 NE No 0.000 No Precipitation 05/14/2019 09:30 PM 05/14/2019 09:35 PM 0.000 0.004 0.004 0.004 0.004 Not Reported Not Reported
05/15/2019 07:13 AM 44.96 43.88 42.80 59.72 44.60 92.0 Not Reported 0.00 E 0.00 E 1.34 NE No 0.000 No Precipitation 05/14/2019 09:30 PM 05/14/2019 09:35 PM 0.000 0.004 0.004 0.004 0.004 Not Reported Not Reported
05/15/2019 07:18 AM 44.78 43.88 42.98 59.72 44.60 92.0 Not Reported 0.00 NE 0.00 NE 1.34 NE No 0.000 No Precipitation 05/14/2019 09:30 PM 05/14/2019 09:35 PM 0.000 0.004 0.004 0.004 0.004 Not Reported Not Reported
05/15/2019 07:23 AM 44.78 43.88 42.80 59.72 44.60 92.0 Not Reported 0.00 NE 0.00 NE 1.79 NE No 0.000 No Precipitation 05/14/2019 09:30 PM 05/14/2019 09:35 PM 0.000 0.004 0.004 0.004 0.004 Not Reported Not Reported
05/15/2019 07:28 AM 44.96 43.88 42.98 59.72 44.60 92.0 Not Reported 0.00 N 0.00 NE 1.79 NE No 0.000 No Precipitation 05/14/2019 09:30 PM 05/14/2019 09:35 PM 0.000 0.004 0.004 0.004 0.004 Not Reported Not Reported
05/15/2019 07:33 AM 44.96 43.88 42.80 59.72 44.60 91.0 Not Reported 0.00 N 0.00 NE 0.67 NE No 0.000 No Precipitation 05/14/2019 09:30 PM 05/14/2019 09:35 PM 0.000 0.004 0.004 0.004 0.004 Not Reported Not Reported
05/15/2019 07:38 AM 44.78 43.70 42.62 59.72 44.60 91.0 Not Reported 0.00 N 0.00 E 0.67 NE No 0.000 No Precipitation 05/14/2019 09:30 PM 05/14/2019 09:35 PM 0.000 0.004 0.004 0.004 0.004 Not Reported Not Reported
05/15/2019 07:43 AM 44.78 43.88 42.62 59.72 44.60 91.0 Not Reported 0.00 E 0.00 NE 0.00 E No 0.000 No Precipitation 05/14/2019 09:30 PM 05/14/2019 09:35 PM 0.000 0.004 0.004 0.004 0.004 Not Reported Not Reported
05/15/2019 07:48 AM 44.78 43.88 42.80 59.72 44.60 92.0 Not Reported 0.22 E 0.00 E 0.00 E No 0.000 No Precipitation 05/14/2019 09:30 PM 05/14/2019 09:35 PM 0.000 0.004 0.004 0.004 0.004 Not Reported Not Reported
05/15/2019 07:53 AM 44.96 43.88 42.80 59.72 44.60 92.0 Not Reported 0.22 E 0.67 E 1.12 E Yes 0.043 Rain Slight 05/14/2019 11:52 PM   0.004 0.008 0.008 0.008 0.008 Not Reported Not Reported
05/15/2019 07:58 AM 44.96 44.06 42.98 59.72 44.60 92.0 Not Reported 0.00 E 0.00 NE 1.12 E No 0.000 No Precipitation 05/14/2019 11:52 PM 05/14/2019 11:57 PM 0.004 0.008 0.008 0.008 0.008 Not Reported Not Reported
05/15/2019 08:03 AM 44.96 44.24 43.16 59.72 44.60 93.0 Not Reported 1.34 NE 2.01 NE 1.12 E No 0.000 No Precipitation 05/14/2019 11:52 PM 05/14/2019 11:57 PM 0.004 0.008 0.008 0.008 0.008 Not Reported Not Reported
05/15/2019 08:08 AM 45.14 44.24 43.34 59.72 44.60 93.0 Not Reported 0.67 E 0.00 NE 1.12 E No 0.000 No Precipitation 05/14/2019 11:52 PM 05/14/2019 11:57 PM 0.004 0.008 0.008 0.008 0.008 Not Reported Not Reported
05/15/2019 08:13 AM 45.68 44.78 43.88 59.72 44.60 93.0 Not Reported 0.45 NE 0.89 E 2.01 NE No 0.000 No Precipitation 05/14/2019 11:52 PM 05/14/2019 11:57 PM 0.004 0.008 0.008 0.008 0.008 Not Reported Not Reported
05/15/2019 08:18 AM 45.68 44.78 43.88 59.72 44.60 93.0 Not Reported 1.34 NE 0.89 E 2.01 NE No 0.000 No Precipitation 05/14/2019 11:52 PM 05/14/2019 11:57 PM 0.004 0.008 0.008 0.008 0.008 Not Reported Not Reported
05/15/2019 08:23 AM 45.68 44.60 43.52 59.72 44.60 92.0 Not Reported 0.67 NE 2.01 NE 2.91 E No 0.000 No Precipitation 05/14/2019 11:52 PM 05/14/2019 11:57 PM 0.004 0.008 0.008 0.008 0.008 Not Reported Not Reported
05/15/2019 08:28 AM 46.04 44.78 43.70 59.72 44.60 91.0 Not Reported 0.45 NE 1.12 NE 2.91 E No 0.000 No Precipitation 05/14/2019 11:52 PM 05/14/2019 11:57 PM 0.004 0.008 0.008 0.008 0.008 Not Reported Not Reported
05/15/2019 08:33 AM 46.22 44.96 43.52 59.72 44.60 90.0 Not Reported 0.89 E 0.45 E 2.01 NE No 0.000 No Precipitation 05/14/2019 11:52 PM 05/14/2019 11:57 PM 0.004 0.004 0.008 0.008 0.008 Not Reported Not Reported
05/15/2019 08:38 AM 46.40 45.14 43.88 59.72 44.60 91.0 Not Reported 0.00 E 0.22 NE 2.01 NE No 0.000 No Precipitation 05/14/2019 11:52 PM 05/14/2019 11:57 PM 0.004 0.004 0.008 0.008 0.008 Not Reported Not Reported
05/15/2019 08:43 AM 46.22 44.78 43.52 59.72 44.60 90.0 Not Reported 0.00 NE 0.00 NE 1.34 NE No 0.000 No Precipitation 05/14/2019 11:52 PM 05/14/2019 11:57 PM 0.004 0.004 0.008 0.008 0.008 Not Reported Not Reported
05/15/2019 08:49 AM 46.04 44.60 42.98 59.72 44.60 88.0 Not Reported 0.67 E 0.00 N 1.34 NE No 0.000 No Precipitation 05/15/2019 12:44 AM 05/15/2019 12:49 AM 0.008 0.008 0.008 0.008 0.008 Not Reported Not Reported
05/15/2019 08:53 AM 46.04 44.24 42.62 59.72 44.60 88.0 Not Reported 0.00 E 0.00 E 1.34 E No 0.000 No Precipitation 05/15/2019 12:44 AM 05/15/2019 12:49 AM 0.004 0.008 0.008 0.008 0.008 Not Reported Not Reported
05/15/2019 08:58 AM 46.04 44.42 42.80 59.72 44.60 88.0 Not Reported 0.89 N 1.79 N 1.34 E No 0.000 No Precipitation 05/15/2019 12:44 AM 05/15/2019 12:49 AM 0.004 0.008 0.008 0.008 0.008 Not Reported Not Reported
05/15/2019 09:04 AM 45.86 44.24 42.62 59.72 44.60 88.0 Not Reported 0.89 SE 0.45 NW 1.79 N No 0.000 No Precipitation 05/15/2019 12:44 AM 05/15/2019 12:49 AM 0.004 0.008 0.008 0.008 0.008 Not Reported Not Reported
05/15/2019 09:08 AM 45.68 44.06 42.26 59.72 44.60 87.0 Not Reported 0.45 S 0.22 SW 1.79 N Yes 0.043 Rain Slight 05/15/2019 01:05 AM   0.008 0.008 0.016 0.016 0.016 Not Reported Not Reported
05/15/2019 09:13 AM 45.68 44.24 42.62 59.72 44.60 89.0 Not Reported 0.00 N 0.00 NW 1.34 SE Yes 0.085 Rain Moderate 05/15/2019 01:05 AM   0.016 0.020 0.020 0.020 0.020 Not Reported Not Reported
05/15/2019 09:18 AM 45.32 44.06 42.62 59.72 44.60 89.0 Not Reported 0.89 SE 0.89 SE 1.34 SE Yes 0.043 Rain Slight 05/15/2019 01:05 AM   0.020 0.020 0.028 0.028 0.028 Not Reported Not Reported
05/15/2019 09:23 AM 45.14 43.34 41.72 59.72 44.60 87.0 Not Reported 3.58 SE 1.79 SE 1.79 NE Yes 0.085 Rain Moderate 05/15/2019 01:05 AM   0.028 0.031 0.035 0.035 0.035 Not Reported Not Reported
05/15/2019 09:29 AM 44.78 43.34 41.90 59.72 44.60 89.0 Not Reported 0.22 NE 0.22 W 1.79 NE Yes 0.085 Rain Moderate 05/15/2019 01:05 AM   0.035 0.039 0.039 0.039 0.039 Not Reported Not Reported
05/15/2019 09:33 AM 44.60 43.16 41.72 59.72 44.42 89.0 Not Reported 2.91 NE 3.36 NE 5.82 S Yes 0.043 Rain Slight 05/15/2019 01:05 AM   0.039 0.039 0.043 0.043 0.043 Not Reported Not Reported
05/15/2019 09:38 AM 44.60 43.52 42.26 59.72 44.42 91.0 Not Reported 0.89 NE 1.34 NE 5.82 S No 0.000 No Precipitation 05/15/2019 01:05 AM 05/15/2019 01:36 AM 0.039 0.039 0.043 0.043 0.043 Not Reported Not Reported
05/15/2019 09:43 AM 44.78 43.70 42.80 59.72 44.42 92.0 Not Reported 0.22 SW 1.34 E 5.14 NE Yes 0.043 Rain Slight 05/15/2019 01:40 AM   0.039 0.043 0.051 0.051 0.051 Not Reported Not Reported
05/15/2019 09:48 AM 44.60 43.70 42.80 59.72 44.42 93.0 Not Reported 3.13 S 3.80 SW 5.14 NE Yes 0.085 Rain Moderate 05/15/2019 01:47 AM   0.043 0.055 0.059 0.059 0.059 Not Reported Not Reported
05/15/2019 09:53 AM 44.42 43.70 42.80 59.72 44.42 93.0 Not Reported 1.34 SW 2.68 S 5.14 SE Yes 0.227 Rain Moderate 05/15/2019 01:47 AM   0.067 0.075 0.079 0.079 0.079 Not Reported Not Reported
05/15/2019 09:58 AM 43.88 42.98 42.08 59.72 43.88 93.0 Not Reported 3.36 NE 3.80 N 5.14 SE Yes 0.043 Rain Slight 05/15/2019 01:47 AM   0.071 0.079 0.083 0.083 0.083 Not Reported Not Reported
05/15/2019 10:03 AM 43.88 43.16 42.26 59.72 43.88 93.0 Not Reported 1.79 N 1.12 NE 4.47 S Yes 0.043 Rain Slight 05/15/2019 01:47 AM   0.075 0.083 0.083 0.083 0.083 Not Reported Not Reported
05/15/2019 10:08 AM 43.34 42.62 41.72 59.72 43.34 93.0 Not Reported 2.24 E 1.79 NE 4.47 S Yes 0.085 Rain Moderate 05/15/2019 01:47 AM   0.079 0.091 0.091 0.091 0.091 Not Reported Not Reported
05/15/2019 10:13 AM 43.34 42.80 41.90 59.72 43.34 94.0 Not Reported 0.89 NE 3.36 E 4.92 NE Yes 0.043 Rain Slight 05/15/2019 01:47 AM   0.075 0.091 0.098 0.098 0.098 Not Reported Not Reported
05/15/2019 10:18 AM 43.52 42.80 42.26 59.72 43.34 94.0 Not Reported 1.79 E 0.22 SE 4.92 NE Yes 0.043 Rain Slight 05/15/2019 01:47 AM   0.075 0.098 0.102 0.102 0.102 Not Reported Not Reported
05/15/2019 10:23 AM 43.52 42.80 42.08 59.72 43.34 94.0 Not Reported 1.12 NE 2.24 NE 4.25 NE Yes 0.043 Rain Slight 05/15/2019 02:21 AM   0.071 0.102 0.102 0.102 0.102 Not Reported Not Reported
05/15/2019 10:28 AM 43.52 42.98 42.26 59.72 43.34 95.0 Not Reported 1.57 E 2.91 E 4.25 NE Yes 0.043 Rain Slight 05/15/2019 02:27 AM   0.067 0.102 0.110 0.110 0.110 Not Reported Not Reported
05/15/2019 10:33 AM 43.16 42.62 41.90 59.72 43.16 94.0 Not Reported 2.91 E 1.34 S 2.91 E Yes 0.043 Rain Slight 05/15/2019 02:33 AM   0.067 0.110 0.110 0.110 0.110 Not Reported Not Reported
05/15/2019 10:39 AM 43.34 42.98 42.08 59.72 43.16 95.0 Not Reported 1.79 SE 0.45 N 2.91 E Yes 0.085 Rain Moderate 05/15/2019 02:33 AM   0.075 0.118 0.122 0.122 0.122 Not Reported Not Reported
05/15/2019 10:43 AM 43.70 42.98 42.44 59.72 43.16 95.0 Not Reported 0.67 SE 0.22 E 3.80 SE Yes 0.085 Rain Moderate 05/15/2019 02:33 AM   0.079 0.126 0.130 0.130 0.130 Not Reported Not Reported
05/15/2019 10:48 AM 43.52 42.80 42.26 59.72 43.16 95.0 Not Reported 0.22 NE 0.22 E 3.80 SE Yes 0.085 Rain Moderate 05/15/2019 02:33 AM   0.079 0.134 0.138 0.138 0.138 Not Reported Not Reported
05/15/2019 10:53 AM 43.52 43.16 42.26 59.72 43.16 95.0 Not Reported 1.12 SE 1.79 E 4.70 E Yes 0.085 Rain Moderate 05/15/2019 02:33 AM   0.067 0.138 0.146 0.146 0.146 Not Reported Not Reported
05/15/2019 10:58 AM 43.34 42.62 41.90 59.72 43.16 94.0 Not Reported 0.89 NE 2.24 NE 4.70 E Yes 0.128 Rain Moderate 05/15/2019 02:33 AM   0.075 0.150 0.157 0.157 0.157 Not Reported Not Reported
05/15/2019 11:04 AM 42.98 42.44 41.54 59.72 42.98 94.0 Not Reported 1.79 NE 0.89 N 3.58 NW Yes 0.085 Rain Moderate 05/15/2019 02:33 AM   0.079 0.157 0.165 0.165 0.165 Not Reported Not Reported
05/15/2019 11:08 AM 43.34 42.62 42.08 59.72 42.98 95.0 Not Reported 1.79 E 0.89 NE 3.58 NW Yes 0.128 Rain Moderate 05/15/2019 02:33 AM   0.083 0.165 0.177 0.177 0.177 Not Reported Not Reported
05/15/2019 11:13 AM 43.16 42.62 41.90 59.72 42.98 95.0 Not Reported 1.12 N 1.79 NE 2.68 NE Yes 0.184 Rain Moderate 05/15/2019 02:33 AM   0.091 0.185 0.189 0.189 0.189 Not Reported Not Reported
05/15/2019 11:18 AM 43.16 42.44 41.72 59.72 42.80 94.0 Not Reported 4.03 NW 3.36 S 2.68 NE Yes 0.085 Rain Moderate 05/15/2019 02:33 AM   0.098 0.189 0.201 0.201 0.201 Not Reported Not Reported
05/15/2019 11:24 AM 42.80 42.08 41.36 59.72 42.80 94.0 Not Reported 2.91 NW 2.91 NW 8.50 N Yes 0.085 Rain Moderate 05/15/2019 02:33 AM   0.102 0.201 0.205 0.205 0.205 Not Reported Not Reported
05/15/2019 11:28 AM 42.98 42.26 41.36 59.72 42.80 93.0 Not Reported 1.12 NW 0.45 W 8.50 N Yes 0.085 Rain Moderate 05/15/2019 02:33 AM   0.102 0.205 0.217 0.217 0.217 Not Reported Not Reported
05/15/2019 11:33 AM 43.34 42.62 41.90 59.72 42.80 94.0 Not Reported 0.45 NE 2.68 N 6.93 W Yes 0.085 Rain Moderate 05/15/2019 02:33 AM   0.110 0.217 0.220 0.224 0.224 Not Reported Not Reported
05/15/2019 11:38 AM 42.80 42.08 41.18 59.72 42.80 93.0 Not Reported 3.13 W 2.68 SW 6.93 W Yes 0.085 Rain Moderate 05/15/2019 02:33 AM   0.110 0.224 0.224 0.228 0.228 Not Reported Not Reported
05/15/2019 11:44 AM 42.80 42.26 41.00 59.72 42.80 93.0 Not Reported 2.24 SE 2.91 S 7.83 S Yes 0.043 Rain Slight 05/15/2019 03:43 AM   0.102 0.224 0.228 0.236 0.236 Not Reported Not Reported
05/15/2019 11:48 AM 42.80 42.08 41.18 59.72 42.80 93.0 Not Reported 1.79 N 0.67 E 7.83 S No 0.000 No Precipitation 05/15/2019 03:43 AM 05/15/2019 03:48 AM 0.098 0.224 0.228 0.236 0.236 Not Reported Not Reported
05/15/2019 11:53 AM 42.98 42.08 41.18 59.72 42.80 93.0 Not Reported 1.34 N 0.89 NW 3.80 N Yes 0.043 Rain Slight 05/15/2019 03:50 AM   0.091 0.224 0.236 0.240 0.240 Not Reported Not Reported
05/15/2019 11:58 AM 43.16 42.26 41.36 59.72 42.80 93.0 Not Reported 1.34 W 1.34 NW 3.80 N Yes 0.043 Rain Slight 05/15/2019 03:57 AM   0.083 0.228 0.240 0.244 0.244 Not Reported Not Reported
05/15/2019 12:03 PM 43.16 42.26 41.36 59.72 42.80 93.0 Not Reported 2.24 SE 2.24 E 6.26 W Yes 0.043 Rain Slight 05/15/2019 04:02 AM   0.083 0.236 0.244 0.244 0.244 Not Reported Not Reported
05/15/2019 12:08 PM 43.16 41.90 41.00 59.72 42.80 92.0 Not Reported 5.59 E 8.50 SE 6.26 W Yes 0.085 Rain Moderate 05/15/2019 04:02 AM   0.079 0.240 0.252 0.256 0.256 Not Reported Not Reported
05/15/2019 12:13 PM 42.98 41.90 40.64 59.72 42.80 91.0 Not Reported 2.46 SW 2.01 W 8.50 SE Yes 0.043 Rain Moderate 05/15/2019 04:02 AM   0.071 0.240 0.260 0.264 0.264 Not Reported Not Reported
05/15/2019 12:18 PM 42.98 42.08 41.00 59.72 42.80 92.0 Not Reported 1.34 E 2.24 E 8.50 SE Yes 0.043 Rain Slight 05/15/2019 04:02 AM   0.063 0.236 0.260 0.264 0.264 Not Reported Not Reported
05/15/2019 12:23 PM 42.98 42.26 41.18 59.72 42.80 93.0 Not Reported 0.89 E 0.22 N 5.59 W Yes 0.043 Rain Slight 05/15/2019 04:21 AM   0.059 0.228 0.264 0.268 0.268 Not Reported Not Reported
05/15/2019 12:29 PM 42.98 41.90 41.18 59.72 42.80 93.0 Not Reported 1.57 SE 9.62 E 5.59 W Yes 0.043 Rain Slight 05/15/2019 04:21 AM   0.055 0.224 0.268 0.272 0.272 Not Reported Not Reported
05/15/2019 12:33 PM 43.16 42.26 41.36 59.72 42.80 93.0 Not Reported 2.01 NE 1.34 S 9.62 E Yes 0.085 Rain Moderate 05/15/2019 04:21 AM   0.055 0.228 0.276 0.280 0.280 Not Reported Not Reported
05/15/2019 12:38 PM 42.98 42.08 41.18 59.72 42.80 93.0 Not Reported 2.01 E 0.89 E 9.62 E Yes 0.085 Rain Moderate 05/15/2019 04:21 AM   0.055 0.240 0.283 0.287 0.287 Not Reported Not Reported
05/15/2019 12:43 PM 42.98 42.08 41.18 59.72 42.80 93.0 Not Reported 3.36 N 0.89 E 5.82 NE Yes 0.085 Rain Moderate 05/15/2019 04:21 AM   0.059 0.244 0.291 0.295 0.295 Not Reported Not Reported
05/15/2019 12:48 PM 42.98 42.26 41.36 59.72 42.80 93.0 Not Reported 0.89 E 0.67 E 5.82 NE Yes 0.128 Rain Moderate 05/15/2019 04:21 AM   0.071 0.244 0.303 0.307 0.307 Not Reported Not Reported
05/15/2019 12:53 PM 42.80 42.08 41.18 59.72 42.80 93.0 Not Reported 2.01 NE 1.12 SW 4.47 N Yes 0.085 Rain Moderate 05/15/2019 04:21 AM   0.079 0.240 0.315 0.315 0.315 Not Reported Not Reported
05/15/2019 12:58 PM 42.98 42.26 41.36 59.72 42.80 94.0 Not Reported 1.12 E 2.24 E 4.47 N Yes 0.085 Rain Moderate 05/15/2019 04:21 AM   0.083 0.244 0.323 0.323 0.323 Not Reported Not Reported
05/15/2019 01:03 PM 42.98 42.26 41.54 59.72 42.80 94.0 Not Reported 1.12 NE 2.91 SW 2.91 NE Yes 0.128 Rain Moderate 05/15/2019 04:21 AM   0.091 0.252 0.335 0.335 0.335 Not Reported Not Reported
05/15/2019 01:08 PM 42.98 41.90 41.36 59.72 42.62 94.0 Not Reported 2.01 E 2.24 E 2.91 NE Yes 0.085 Rain Moderate 05/15/2019 04:21 AM   0.091 0.252 0.343 0.343 0.343 Not Reported Not Reported
05/15/2019 01:13 PM 42.98 42.26 41.54 59.72 42.62 94.0 Not Reported 0.45 SE 1.34 NE 6.93 S Yes 0.184 Rain Moderate 05/15/2019 04:21 AM   0.102 0.264 0.354 0.362 0.362 Not Reported Not Reported
05/15/2019 01:19 PM 43.16 42.26 41.90 59.72 42.62 94.0 Not Reported 1.57 N 3.13 NE 6.93 S Yes 0.085 Rain Moderate 05/15/2019 04:21 AM   0.102 0.268 0.362 0.370 0.370 Not Reported Not Reported
05/15/2019 01:23 PM 42.98 42.44 41.72 59.72 42.62 95.0 Not Reported 2.68 NE 3.13 S 3.80 NE Yes 0.128 Rain Moderate 05/15/2019 04:21 AM   0.110 0.276 0.374 0.382 0.382 Not Reported Not Reported
05/15/2019 01:28 PM 43.16 42.44 41.90 59.72 42.62 95.0 Not Reported 1.34 E 2.46 SE 3.80 NE Yes 0.085 Rain Moderate 05/15/2019 04:21 AM   0.118 0.280 0.382 0.390 0.390 Not Reported Not Reported
05/15/2019 01:33 PM 42.80 42.26 41.54 59.72 42.62 94.0 Not Reported 1.79 E 2.01 SE 4.03 NE Yes 0.085 Rain Moderate 05/15/2019 04:21 AM   0.118 0.283 0.394 0.394 0.394 Not Reported Not Reported
05/15/2019 01:38 PM 42.80 42.08 41.36 59.72 42.62 94.0 Not Reported 2.24 NE 1.57 NE 4.03 NE Yes 0.043 Rain Slight 05/15/2019 04:21 AM   0.110 0.280 0.394 0.402 0.402 Not Reported Not Reported
05/15/2019 01:43 PM 42.62 41.90 41.18 59.72 42.62 94.0 Not Reported 2.24 NE 0.89 W 6.71 NE Yes 0.043 Rain Slight 05/15/2019 04:21 AM   0.110 0.276 0.402 0.402 0.402 Not Reported Not Reported
05/15/2019 01:48 PM 42.80 42.08 41.36 59.72 42.62 94.0 Not Reported 2.24 SW 2.91 SW 6.71 NE Yes 0.043 Rain Slight 05/15/2019 05:47 AM   0.102 0.272 0.402 0.409 0.409 Not Reported Not Reported
05/15/2019 01:53 PM 42.80 42.08 41.36 59.72 42.44 94.0 Not Reported 2.91 N 0.67 N 8.28 NE Yes 0.043 Rain Slight 05/15/2019 05:47 AM   0.091 0.268 0.402 0.413 0.413 Not Reported Not Reported
05/15/2019 01:58 PM 43.16 42.44 41.72 59.72 42.44 95.0 Not Reported 1.57 E 2.24 NE 8.28 NE Yes 0.043 Rain Slight 05/15/2019 05:58 AM   0.091 0.260 0.409 0.413 0.413 Not Reported Not Reported
05/15/2019 02:03 PM 42.80 42.26 41.54 59.72 42.44 94.0 Not Reported 2.01 NE 0.89 NE 6.26 SE Yes 0.043 Rain Slight 05/15/2019 05:58 AM   0.083 0.256 0.413 0.421 0.421 Not Reported Not Reported
05/15/2019 02:08 PM 42.80 42.26 41.54 59.72 42.44 95.0 Not Reported 1.57 NE 0.45 NE 6.26 SE Yes 0.085 Rain Moderate 05/15/2019 05:58 AM   0.083 0.252 0.421 0.429 0.429 Not Reported Not Reported
05/15/2019 02:13 PM 42.80 42.26 41.54 59.72 42.44 95.0 Not Reported 2.24 NE 1.34 E 3.58 N Yes 0.043 Rain Slight 05/15/2019 06:12 AM   0.071 0.240 0.421 0.433 0.433 Not Reported Not Reported
05/15/2019 02:18 PM 42.98 42.26 41.72 59.72 42.44 95.0 Not Reported 2.68 NE 2.91 E 3.58 N No 0.000 No Precipitation 05/15/2019 06:12 AM 05/15/2019 06:17 AM 0.063 0.228 0.421 0.433 0.433 Not Reported Not Reported
05/15/2019 02:23 PM 42.98 42.44 41.72 59.72 42.44 95.0 Not Reported 2.46 NW 2.01 E 3.58 N Yes 0.043 Rain Slight 05/15/2019 06:19 AM   0.055 0.224 0.429 0.433 0.433 Not Reported Not Reported
05/15/2019 02:28 PM 43.16 42.62 42.08 59.72 42.44 95.0 Not Reported 2.46 NE 3.13 NE 3.58 N Yes 0.043 Rain Slight 05/15/2019 06:25 AM   0.051 0.224 0.433 0.441 0.441 Not Reported Not Reported
05/15/2019 02:33 PM 43.16 42.62 41.90 59.72 42.44 95.0 Not Reported 0.67 NE 0.67 E 4.70 N Yes 0.085 Rain Moderate 05/15/2019 06:25 AM   0.051 0.224 0.441 0.449 0.449 Not Reported Not Reported
05/15/2019 02:38 PM 43.70 42.98 42.44 59.72 42.44 95.0 Not Reported 2.24 E 2.68 E 4.70 N Yes 0.043 Rain Moderate 05/15/2019 06:25 AM   0.055 0.224 0.449 0.453 0.453 Not Reported Not Reported
05/15/2019 02:43 PM 44.24 43.70 43.16 59.72 42.44 96.0 Not Reported 2.46 E 1.12 NE 2.91 E Yes 0.085 Rain Moderate 05/15/2019 06:25 AM   0.055 0.224 0.453 0.461 0.461 Not Reported Not Reported
05/15/2019 02:48 PM 43.88 43.34 42.62 59.72 42.44 95.0 Not Reported 0.89 NE 0.22 N 2.91 E Yes 0.043 Rain Slight 05/15/2019 06:25 AM   0.055 0.224 0.453 0.461 0.461 Not Reported Not Reported
05/15/2019 02:53 PM 43.88 43.34 42.80 59.72 42.44 95.0 Not Reported 1.57 NE 0.89 N 2.91 SW Yes 0.043 Rain Slight 05/15/2019 06:25 AM   0.055 0.224 0.453 0.469 0.469 Not Reported Not Reported
05/15/2019 02:58 PM 43.88 43.34 42.80 59.72 42.44 95.0 Not Reported 1.34 NE 0.22 NE 2.91 SW Yes 0.043 Rain Slight 05/15/2019 06:56 AM   0.055 0.224 0.461 0.472 0.472 Not Reported Not Reported
05/15/2019 03:03 PM 43.88 43.34 42.80 59.72 42.44 95.0 Not Reported 1.12 NE 2.46 NE 2.68 N No 0.000 No Precipitation 05/15/2019 06:56 AM 05/15/2019 07:01 AM 0.051 0.224 0.461 0.472 0.472 Not Reported Not Reported
05/15/2019 03:08 PM 44.06 43.52 42.80 59.72 42.44 95.0 Not Reported 0.89 NE 1.34 NE 2.68 N No 0.000 No Precipitation 05/15/2019 06:56 AM 05/15/2019 07:01 AM 0.039 0.217 0.453 0.472 0.472 Not Reported Not Reported
05/15/2019 03:13 PM 44.06 43.52 42.98 59.72 42.44 95.0 Not Reported 2.46 NW 1.57 NE 2.91 E Yes 0.043 Rain Slight 05/15/2019 07:10 AM   0.039 0.209 0.453 0.472 0.472 Not Reported Not Reported
05/15/2019 03:18 PM 44.24 43.70 43.16 59.72 42.44 95.0 Not Reported 1.34 NE 1.34 NE 2.91 E No 0.000 No Precipitation 05/15/2019 07:10 AM 05/15/2019 07:15 AM 0.039 0.209 0.449 0.472 0.472 Not Reported Not Reported
05/15/2019 03:23 PM 43.88 43.34 42.80 59.72 42.44 95.0 Not Reported 2.01 N 2.24 W 3.13 N Yes 0.043 Rain Slight 05/15/2019 07:20 AM   0.039 0.209 0.441 0.480 0.480 Not Reported Not Reported
05/15/2019 03:28 PM 44.24 43.70 43.16 59.72 42.44 95.0 Not Reported 1.79 NE 1.57 SW 3.13 N Yes 0.085 Rain Moderate 05/15/2019 07:20 AM   0.043 0.217 0.441 0.488 0.488 Not Reported Not Reported
05/15/2019 03:33 PM 44.42 43.88 43.34 59.72 42.44 95.0 Not Reported 1.57 E 1.57 E 6.04 S Yes 0.043 Rain Slight 05/15/2019 07:20 AM   0.039 0.209 0.441 0.492 0.492 Not Reported Not Reported
05/15/2019 03:38 PM 44.24 43.70 42.98 59.72 42.44 95.0 Not Reported 1.79 NE 1.79 NE 6.04 S Yes 0.085 Rain Moderate 05/15/2019 07:20 AM   0.039 0.209 0.453 0.500 0.500 Not Reported Not Reported
05/15/2019 03:43 PM 44.06 43.52 42.98 59.72 42.44 95.0 Not Reported 1.57 N 3.58 NE 2.91 NE No 0.000 No Precipitation 05/15/2019 07:20 AM 05/15/2019 07:43 AM 0.039 0.205 0.449 0.500 0.500 Not Reported Not Reported
05/15/2019 03:48 PM 44.24 43.70 43.16 59.72 42.44 95.0 Not Reported 2.01 NW 1.79 NW 2.91 NE Yes 0.085 Rain Moderate 05/15/2019 07:44 AM   0.039 0.201 0.449 0.508 0.508 Not Reported Not Reported
05/15/2019 03:53 PM 44.42 43.88 43.34 59.72 42.44 95.0 Not Reported 1.79 N 0.22 NW 3.58 NE Yes 0.043 Rain Slight 05/15/2019 07:44 AM   0.039 0.189 0.433 0.512 0.512 Not Reported Not Reported
05/15/2019 03:58 PM 44.06 43.52 42.98 59.72 42.44 95.0 Not Reported 1.79 NE 2.01 N 3.58 NE Yes 0.043 Rain Slight 05/15/2019 07:44 AM   0.039 0.185 0.433 0.516 0.516 Not Reported Not Reported
05/15/2019 04:03 PM 44.06 43.52 42.98 59.72 42.44 95.0 Not Reported 1.57 N 2.24 NE 3.13 N Yes 0.043 Rain Slight 05/15/2019 07:44 AM   0.043 0.181 0.433 0.520 0.520 Not Reported Not Reported
05/15/2019 04:08 PM 44.06 43.70 42.98 59.18 42.44 95.0 Not Reported 2.91 E 1.12 SE 3.13 N Yes 0.128 Rain Moderate 05/15/2019 07:44 AM   0.059 0.185 0.433 0.531 0.531 Not Reported Not Reported
05/15/2019 04:13 PM 44.60 44.06 43.52 58.64 42.44 96.0 Not Reported 1.79 NE 1.34 SW 5.14 NE Yes 0.085 Rain Moderate 05/15/2019 07:44 AM   0.063 0.177 0.441 0.539 0.539 Not Reported Not Reported
05/15/2019 04:18 PM 44.24 43.70 43.16 58.28 42.44 95.0 Not Reported 2.46 N 1.57 W 5.14 NE Yes 0.043 Rain Slight 05/15/2019 07:44 AM   0.067 0.169 0.441 0.543 0.543 Not Reported Not Reported
05/15/2019 04:23 PM 44.24 43.88 42.98 58.28 42.44 95.0 Not Reported 1.79 E 0.45 E 3.58 SE Yes 0.043 Rain Slight 05/15/2019 07:44 AM   0.067 0.165 0.441 0.547 0.547 Not Reported Not Reported
05/15/2019 04:28 PM 44.60 44.06 43.52 58.28 42.44 95.0 Not Reported 1.34 SW 2.01 SW 3.58 SE Yes 0.085 Rain Moderate 05/15/2019 07:44 AM   0.067 0.165 0.441 0.555 0.555 Not Reported Not Reported
05/15/2019 04:33 PM 44.42 43.88 43.16 57.74 42.44 95.0 Not Reported 0.45 S 4.70 NE 3.36 NE Yes 0.043 Rain Slight 05/15/2019 07:44 AM   0.067 0.161 0.441 0.559 0.559 Not Reported Not Reported
05/15/2019 04:38 PM 44.24 43.70 42.98 57.74 42.44 95.0 Not Reported 2.68 N 1.79 N 3.36 NE No 0.000 No Precipitation 05/15/2019 07:44 AM 05/15/2019 08:37 AM 0.059 0.157 0.433 0.559 0.559 Not Reported Not Reported
05/15/2019 04:43 PM 44.24 43.70 43.16 57.74 42.44 95.0 Not Reported 1.79 NE 0.00 NE 4.70 NE Yes 0.043 Rain Slight 05/15/2019 08:40 AM   0.063 0.157 0.433 0.563 0.563 Not Reported Not Reported
05/15/2019 04:48 PM 44.24 43.52 42.98 57.20 42.44 95.0 Not Reported 2.68 NW 2.01 NW 4.70 NE Yes 0.043 Rain Slight 05/15/2019 08:47 AM   0.059 0.157 0.429 0.567 0.567 Not Reported Not Reported
05/15/2019 04:53 PM 44.42 43.70 43.16 57.20 42.44 95.0 Not Reported 1.57 NE 4.03 N 5.37 S No 0.000 No Precipitation 05/15/2019 08:47 AM 05/15/2019 08:52 AM 0.055 0.154 0.421 0.567 0.567 Not Reported Not Reported
05/15/2019 04:58 PM 44.42 43.88 43.34 57.20 42.44 95.0 Not Reported 2.24 NE 1.79 NE 5.37 S No 0.000 No Precipitation 05/15/2019 08:47 AM 05/15/2019 08:52 AM 0.051 0.150 0.409 0.567 0.567 Not Reported Not Reported
05/15/2019 05:03 PM 44.60 43.88 43.34 57.20 42.44 95.0 Not Reported 1.57 SE 2.46 E 4.92 SE Yes 0.043 Rain Slight 05/15/2019 08:59 AM   0.051 0.150 0.402 0.571 0.571 Not Reported Not Reported
05/15/2019 05:08 PM 44.78 44.24 43.70 57.20 42.44 95.0 Not Reported 2.24 N 2.01 NE 4.92 SE No 0.000 No Precipitation 05/15/2019 08:59 AM 05/15/2019 09:04 AM 0.039 0.142 0.394 0.571 0.571 Not Reported Not Reported
05/15/2019 05:13 PM 44.60 44.06 43.52 57.20 42.44 95.0 Not Reported 0.67 N 1.34 NE 4.92 E No 0.000 No Precipitation 05/15/2019 08:59 AM 05/15/2019 09:04 AM 0.031 0.138 0.374 0.571 0.571 Not Reported Not Reported
05/15/2019 05:18 PM 44.42 43.70 43.16 57.20 42.44 95.0 Not Reported 2.01 NE 1.34 NE 4.92 E Yes 0.043 Rain Slight 05/15/2019 09:15 AM   0.031 0.142 0.374 0.575 0.575 Not Reported Not Reported
05/15/2019 05:23 PM 44.42 43.88 43.34 56.66 42.44 95.0 Not Reported 1.12 E 2.91 W 2.91 SE Yes 0.085 Rain Moderate 05/15/2019 09:15 AM   0.035 0.146 0.374 0.583 0.583 Not Reported Not Reported
05/15/2019 05:28 PM 44.24 43.70 43.16 56.66 42.44 95.0 Not Reported 4.47 S 2.24 S 2.91 SE Yes 0.043 Rain Slight 05/15/2019 09:15 AM   0.031 0.146 0.370 0.587 0.587 Not Reported Not Reported
05/15/2019 05:34 PM 44.06 43.70 42.98 56.66 42.44 95.0 Not Reported 2.68 E 1.79 N 6.49 SE Yes 0.085 Rain Moderate 05/15/2019 09:15 AM   0.035 0.146 0.370 0.591 0.594 Not Reported Not Reported
05/15/2019 05:38 PM 44.24 43.70 43.16 56.66 42.44 95.0 Not Reported 1.57 E 2.46 E 6.49 SE Yes 0.043 Rain Slight 05/15/2019 09:15 AM   0.039 0.146 0.362 0.594 0.598 Not Reported Not Reported
05/15/2019 05:43 PM 44.42 43.88 43.34 56.66 42.44 95.0 Not Reported 1.34 NE 1.12 E 4.03 SE Yes 0.043 Rain Slight 05/15/2019 09:15 AM   0.039 0.142 0.362 0.598 0.602 Not Reported Not Reported
05/15/2019 05:48 PM 44.24 43.70 43.16 56.66 42.44 95.0 Not Reported 1.57 S 2.24 SW 4.03 SE Yes 0.128 Rain Moderate 05/15/2019 09:15 AM   0.043 0.150 0.374 0.610 0.614 Not Reported Not Reported
05/15/2019 05:53 PM 44.06 43.52 42.80 56.66 42.44 95.0 Not Reported 2.24 NE 1.57 N 2.46 E Yes 0.184 Rain Moderate 05/15/2019 09:15 AM   0.063 0.161 0.390 0.626 0.630 Not Reported Not Reported
05/15/2019 05:58 PM 44.24 43.70 43.16 56.66 42.44 95.0 Not Reported 1.79 NE 1.12 E 2.46 E Yes 0.085 Rain Moderate 05/15/2019 09:15 AM   0.071 0.165 0.394 0.630 0.634 Not Reported Not Reported
05/15/2019 06:03 PM 44.42 43.88 43.34 56.66 42.44 96.0 Not Reported 2.01 E 2.46 E 3.36 NE Yes 0.085 Rain Moderate 05/15/2019 09:15 AM   0.075 0.169 0.394 0.642 0.646 Not Reported Not Reported
05/15/2019 06:08 PM 44.06 43.52 42.98 56.66 42.44 95.0 Not Reported 1.57 NE 1.12 N 3.36 NE Yes 0.085 Rain Moderate 05/15/2019 09:15 AM   0.083 0.181 0.394 0.650 0.650 Not Reported Not Reported
05/15/2019 06:13 PM 44.24 43.70 43.16 56.66 42.44 95.0 Not Reported 0.89 N 0.67 SE 4.25 S No 0.000 No Precipitation 05/15/2019 09:15 AM 05/15/2019 10:13 AM 0.083 0.177 0.394 0.650 0.650 Not Reported Not Reported
05/15/2019 06:18 PM 44.06 43.70 42.98 56.66 42.44 95.0 Not Reported 3.13 SE 5.14 SW 4.25 S Yes 0.043 Rain Slight 05/15/2019 10:14 AM   0.083 0.181 0.394 0.650 0.654 Not Reported Not Reported
05/15/2019 06:23 PM 44.24 43.70 43.16 55.94 42.44 95.0 Not Reported 2.46 N 1.57 N 5.14 SW Yes 0.043 Rain Slight 05/15/2019 10:19 AM   0.079 0.181 0.394 0.654 0.661 Not Reported Not Reported
05/15/2019 06:28 PM 44.06 43.52 42.98 55.94 42.44 95.0 Not Reported 1.79 N 3.13 NE 5.14 SW Yes 0.085 Rain Moderate 05/15/2019 10:19 AM   0.083 0.181 0.394 0.665 0.669 Not Reported Not Reported
05/15/2019 06:33 PM 44.06 43.52 42.98 55.94 42.44 95.0 Not Reported 4.25 SE 1.79 N 3.80 W No 0.000 No Precipitation 05/15/2019 10:19 AM 05/15/2019 10:33 AM 0.075 0.177 0.390 0.665 0.669 Not Reported Not Reported
05/15/2019 06:38 PM 44.06 43.52 42.98 55.94 42.44 95.0 Not Reported 2.46 N 4.03 W 3.80 W Yes 0.043 Rain Slight 05/15/2019 10:35 AM   0.075 0.169 0.382 0.669 0.669 Not Reported Not Reported
05/15/2019 06:43 PM 44.24 43.70 43.16 55.76 42.44 95.0 Not Reported 2.91 N 3.80 N 6.26 SE Yes 0.085 Rain Moderate 05/15/2019 10:35 AM   0.079 0.181 0.382 0.673 0.681 Not Reported Not Reported
05/15/2019 06:48 PM 44.42 43.88 43.34 55.40 42.44 96.0 Not Reported 0.45 N 2.01 N 6.26 SE Yes 0.085 Rain Moderate 05/15/2019 10:35 AM   0.075 0.181 0.382 0.685 0.689 Not Reported Not Reported
05/15/2019 06:53 PM 44.24 43.70 43.16 55.40 42.44 96.0 Not Reported 1.79 E 2.01 E 4.03 N Yes 0.043 Rain Slight 05/15/2019 10:35 AM   0.063 0.181 0.374 0.689 0.689 Not Reported Not Reported
05/15/2019 06:58 PM 44.24 43.70 43.16 55.40 42.44 95.0 Not Reported 1.12 NE 1.34 SW 4.03 N Yes 0.043 Rain Slight 05/15/2019 10:58 AM   0.059 0.181 0.370 0.689 0.693 Not Reported Not Reported
05/15/2019 07:03 PM 44.24 43.70 43.16 55.40 42.44 95.0 Not Reported 2.24 E 2.68 E 3.80 NE Yes 0.043 Rain Slight 05/15/2019 10:58 AM   0.055 0.181 0.362 0.693 0.701 Not Reported Not Reported
05/15/2019 07:08 PM 43.88 43.34 42.62 55.40 42.44 95.0 Not Reported 3.13 N 2.01 SE 3.80 NE Yes 0.043 Rain Slight 05/15/2019 10:58 AM   0.051 0.169 0.354 0.701 0.705 Not Reported Not Reported
05/15/2019 07:13 PM 43.88 43.34 42.80 55.22 42.44 95.0 Not Reported 2.91 NE 4.03 SE 4.25 N Yes 0.043 Rain Slight 05/15/2019 10:58 AM   0.055 0.165 0.343 0.705 0.709 Not Reported Not Reported
05/15/2019 07:18 PM 43.88 43.34 42.80 54.68 42.44 95.0 Not Reported 2.01 E 3.36 NE 4.25 N Yes 0.085 Rain Moderate 05/15/2019 10:58 AM   0.059 0.169 0.343 0.709 0.713 Not Reported Not Reported
05/15/2019 07:23 PM 43.88 43.16 42.62 54.32 42.44 95.0 Not Reported 1.12 NE 1.79 NE 4.47 E Yes 0.085 Rain Moderate 05/15/2019 10:58 AM   0.063 0.177 0.343 0.720 0.724 Not Reported Not Reported
05/15/2019 07:28 PM 43.70 43.16 42.62 54.14 42.44 95.0 Not Reported 1.34 NE 0.89 SW 4.47 E Yes 0.085 Rain Moderate 05/15/2019 10:58 AM   0.063 0.177 0.343 0.728 0.728 Not Reported Not Reported
05/15/2019 07:33 PM 43.70 43.16 42.62 54.14 42.44 95.0 Not Reported 2.46 E 1.57 E 4.03 N Yes 0.043 Rain Slight 05/15/2019 10:58 AM   0.067 0.177 0.335 0.728 0.732 Not Reported Not Reported
05/15/2019 07:38 PM 43.52 42.98 42.44 54.14 42.44 95.0 Not Reported 2.68 NE 0.45 N 4.03 N Yes 0.128 Rain Moderate 05/15/2019 10:58 AM   0.075 0.185 0.343 0.744 0.748 Not Reported Not Reported
05/15/2019 07:43 PM 43.88 43.34 42.80 54.14 42.44 95.0 Not Reported 2.01 E 1.79 N 5.14 NE Yes 0.043 Rain Slight 05/15/2019 10:58 AM   0.071 0.185 0.343 0.748 0.748 Not Reported Not Reported
05/15/2019 07:48 PM 43.52 42.98 42.26 53.78 42.44 95.0 Not Reported 2.68 NE 3.80 SE 5.14 NE Yes 0.085 Rain Moderate 05/15/2019 10:58 AM   0.071 0.189 0.350 0.752 0.760 Not Reported Not Reported
05/15/2019 07:53 PM 43.34 42.80 42.26 53.42 42.44 95.0 Not Reported 2.24 NE 1.12 E 4.92 S Yes 0.085 Rain Moderate 05/15/2019 10:58 AM   0.075 0.201 0.354 0.760 0.768 Not Reported Not Reported
05/15/2019 07:58 PM 43.52 42.98 42.26 53.42 42.44 95.0 Not Reported 1.34 SE 0.89 NW 4.92 S Yes 0.085 Rain Moderate 05/15/2019 10:58 AM   0.079 0.205 0.354 0.768 0.772 Not Reported Not Reported
05/15/2019 08:03 PM 43.52 42.98 42.44 53.06 42.44 95.0 Not Reported 2.01 S 1.79 NE 3.58 N Yes 0.085 Rain Moderate 05/15/2019 10:58 AM   0.083 0.209 0.362 0.772 0.783 Not Reported Not Reported
05/15/2019 08:08 PM 43.52 42.98 42.26 53.06 42.44 95.0 Not Reported 1.79 E 1.57 SE 3.58 N Yes 0.085 Rain Moderate 05/15/2019 10:58 AM   0.083 0.220 0.362 0.783 0.787 Not Reported Not Reported
05/15/2019 08:13 PM 43.34 42.80 42.26 53.06 42.44 95.0 Not Reported 0.89 NE 0.00 W 4.92 E Yes 0.085 Rain Moderate 05/15/2019 10:58 AM   0.091 0.224 0.362 0.787 0.799 Not Reported Not Reported
05/15/2019 08:18 PM 43.52 42.98 42.62 52.88 42.44 96.0 Not Reported 2.01 SW 1.79 N 4.92 E Yes 0.128 Rain Moderate 05/15/2019 10:58 AM   0.091 0.236 0.374 0.803 0.807 Not Reported Not Reported
05/15/2019 08:23 PM 43.34 42.80 42.26 52.70 42.44 95.0 Not Reported 1.57 E 3.36 NE 4.03 S Yes 0.085 Rain Moderate 05/15/2019 10:58 AM   0.091 0.236 0.382 0.807 0.819 Not Reported Not Reported
05/15/2019 08:28 PM 43.52 42.98 42.44 52.34 42.44 95.0 Not Reported 1.79 SE 2.68 SE 4.03 S Yes 0.184 Rain Moderate 05/15/2019 10:58 AM   0.102 0.244 0.394 0.827 0.831 Not Reported Not Reported
05/15/2019 08:33 PM 43.34 42.80 42.26 51.80 42.44 95.0 Not Reported 0.67 E 2.46 NE 3.36 E Yes 0.128 Rain Moderate 05/15/2019 10:58 AM   0.110 0.252 0.394 0.839 0.846 Not Reported Not Reported
05/15/2019 08:38 PM 43.34 42.80 42.26 51.62 42.44 95.0 Not Reported 4.25 SW 1.12 SW 3.36 E Yes 0.128 Rain Moderate 05/15/2019 10:58 AM   0.110 0.260 0.402 0.846 0.858 Not Reported Not Reported
05/15/2019 08:43 PM 43.34 42.80 42.26 51.44 42.44 96.0 Not Reported 1.57 NE 2.24 NE 6.26 S Yes 0.128 Rain Moderate 05/15/2019 10:58 AM   0.118 0.268 0.409 0.862 0.866 Not Reported Not Reported
05/15/2019 08:48 PM 43.34 42.80 42.26 51.44 42.44 96.0 Not Reported 2.91 NE 2.24 NE 6.26 S Yes 0.128 Rain Moderate 05/15/2019 10:58 AM   0.122 0.268 0.413 0.866 0.882 Not Reported Not Reported
05/15/2019 08:53 PM 43.16 42.80 42.26 51.44 42.44 96.0 Not Reported 1.12 E 0.00 W 5.14 NE Yes 0.184 Rain Moderate 05/15/2019 10:58 AM   0.130 0.268 0.429 0.886 0.898 Not Reported Not Reported
05/15/2019 08:58 PM 43.34 42.80 42.26 51.08 42.44 96.0 Not Reported 2.46 SE 2.24 S 5.14 NE Yes 0.128 Rain Moderate 05/15/2019 10:58 AM   0.134 0.272 0.433 0.898 0.906 Not Reported Not Reported
05/15/2019 09:03 PM 43.34 42.80 42.44 50.90 42.44 96.0 Not Reported 2.46 E 1.12 S 3.58 E Yes 0.128 Rain Moderate 05/15/2019 10:58 AM   0.138 0.276 0.449 0.906 0.921 Not Reported Not Reported
05/15/2019 09:08 PM 43.16 42.62 42.08 50.72 42.44 96.0 Not Reported 2.68 E 2.01 E 3.58 E Yes 0.085 Rain Moderate 05/15/2019 10:58 AM   0.138 0.276 0.453 0.909 0.925 Not Reported Not Reported
05/15/2019 09:13 PM 43.34 42.80 42.26 50.36 42.44 96.0 Not Reported 2.68 E 0.22 NE 4.92 E Yes 0.085 Rain Moderate 05/15/2019 10:58 AM   0.138 0.283 0.461 0.909 0.937 Not Reported Not Reported
05/15/2019 09:18 PM 43.34 42.80 42.26 50.18 42.44 96.0 Not Reported 4.03 E 4.25 SE 4.92 E Yes 0.184 Rain Moderate 05/15/2019 10:58 AM   0.142 0.295 0.472 0.925 0.949 Not Reported Not Reported
05/15/2019 09:23 PM 43.16 42.80 42.26 50.00 42.44 96.0 Not Reported 2.24 S 1.79 E 4.25 SE Yes 0.128 Rain Moderate 05/15/2019 10:58 AM   0.146 0.303 0.480 0.925 0.965 Not Reported Not Reported
05/15/2019 09:28 PM 43.16 42.62 42.26 50.00 42.44 96.0 Not Reported 2.01 E 3.58 SW 4.25 SE Yes 0.128 Rain Moderate 05/15/2019 10:58 AM   0.142 0.307 0.488 0.937 0.976 Not Reported Not Reported
05/15/2019 09:33 PM 43.16 42.62 42.08 50.00 42.44 96.0 Not Reported 2.68 E 5.14 S 5.59 SE Yes 0.227 Rain Moderate 05/15/2019 10:58 AM   0.150 0.323 0.504 0.945 0.996 Not Reported Not Reported
05/15/2019 09:38 PM 43.34 42.62 42.26 49.82 42.44 96.0 Not Reported 2.91 W 2.91 SE 5.59 SE Yes 0.085 Rain Moderate 05/15/2019 10:58 AM   0.150 0.335 0.508 0.961 1.008 Not Reported Not Reported
05/15/2019 09:43 PM 42.98 42.44 41.90 49.82 42.44 95.0 Not Reported 2.68 E 3.58 N 6.49 N Yes 0.128 Rain Moderate 05/15/2019 10:58 AM   0.146 0.335 0.516 0.965 1.016 Not Reported Not Reported
05/15/2019 09:48 PM 43.16 42.62 42.08 49.82 42.44 96.0 Not Reported 1.34 NE 0.45 N 6.49 N Yes 0.184 Rain Moderate 05/15/2019 10:58 AM   0.150 0.343 0.524 0.969 1.031 Not Reported Not Reported
05/15/2019 09:53 PM 43.16 42.62 42.08 49.64 42.44 95.0 Not Reported 1.12 N 0.67 N 6.26 S Yes 0.184 Rain Moderate 05/15/2019 10:58 AM   0.150 0.354 0.535 0.965 1.047 Not Reported Not Reported
05/15/2019 09:58 PM 42.98 42.44 41.90 49.64 42.44 95.0 Not Reported 3.80 E 3.80 NE 6.26 S Yes 0.184 Rain Moderate 05/15/2019 10:58 AM   0.154 0.362 0.547 0.980 1.063 Not Reported Not Reported
05/15/2019 10:03 PM 43.16 42.62 42.08 49.64 42.44 96.0 Not Reported 2.68 SE 1.12 NE 4.70 NE Yes 0.085 Rain Moderate 05/15/2019 10:58 AM   0.150 0.370 0.551 0.984 1.071 Not Reported Not Reported
05/15/2019 10:08 PM 42.98 42.44 41.90 49.64 42.44 95.0 Not Reported 0.89 E 0.67 E 4.70 NE Yes 0.184 Rain Moderate 05/15/2019 10:58 AM   0.157 0.382 0.555 0.988 1.087 Not Reported Not Reported
05/15/2019 10:13 PM 42.98 42.44 41.90 49.64 42.44 95.0 Not Reported 0.89 W 1.12 NW 8.95 S Yes 0.128 Rain Moderate 05/15/2019 10:58 AM   0.161 0.390 0.559 1.000 1.098 Not Reported Not Reported
05/15/2019 10:18 PM 43.16 42.62 42.08 49.64 42.44 96.0 Not Reported 1.12 NE 0.89 NE 8.95 S Yes 0.184 Rain Moderate 05/15/2019 10:58 AM   0.161 0.394 0.571 1.012 1.114 Not Reported Not Reported
05/15/2019 10:23 PM 42.98 42.44 41.90 49.64 42.44 95.0 Not Reported 1.57 SE 2.24 NE 3.80 SE Yes 0.227 Rain Moderate 05/15/2019 10:58 AM   0.165 0.409 0.587 1.028 1.134 Not Reported Not Reported
05/15/2019 10:28 PM 42.80 42.26 41.72 49.64 42.44 95.0 Not Reported 2.01 N 0.89 N 3.80 SE Yes 0.128 Rain Moderate 05/15/2019 10:58 AM   0.165 0.413 0.591 1.035 1.146 Not Reported Not Reported
05/15/2019 10:33 PM 42.62 42.08 41.36 49.64 42.44 95.0 Not Reported 3.58 NW 3.58 NE 5.14 N Yes 0.128 Rain Moderate 05/15/2019 10:58 AM   0.161 0.421 0.598 1.043 1.157 Not Reported Not Reported
05/15/2019 10:38 PM 42.62 42.08 41.36 49.64 42.44 95.0 Not Reported 0.89 E 1.34 NE 5.14 N Yes 0.128 Rain Moderate 05/15/2019 10:58 AM   0.165 0.421 0.610 1.047 1.169 Not Reported Not Reported
05/15/2019 10:43 PM 42.26 41.72 41.00 49.64 42.26 94.0 Not Reported 3.58 SE 1.34 NE 5.14 E Yes 0.128 Rain Moderate 05/15/2019 10:58 AM   0.165 0.429 0.618 1.051 1.181 Not Reported Not Reported
05/15/2019 10:48 PM 42.44 41.90 41.18 49.64 42.26 94.0 Not Reported 2.24 N 0.00 S 5.14 E Yes 0.128 Rain Moderate 05/15/2019 10:58 AM   0.161 0.433 0.626 1.055 1.193 Not Reported Not Reported
05/15/2019 10:53 PM 42.44 41.90 41.18 49.64 42.26 94.0 Not Reported 2.91 NE 0.67 NE 4.47 SE Yes 0.128 Rain Moderate 05/15/2019 10:58 AM   0.157 0.433 0.634 1.059 1.205 Not Reported Not Reported
05/15/2019 10:58 PM 42.44 41.72 41.00 49.64 42.26 94.0 Not Reported 0.89 NE 1.12 NE 4.47 SE Yes 0.128 Rain Moderate 05/15/2019 10:58 AM   0.154 0.441 0.650 1.059 1.217 Not Reported Not Reported
05/15/2019 11:03 PM 42.44 41.72 41.18 49.64 42.26 95.0 Not Reported 1.34 E 1.34 NE 4.92 E Yes 0.227 Rain Moderate 05/15/2019 10:58 AM   0.165 0.453 0.665 1.071 1.236 Not Reported Not Reported
05/15/2019 11:08 PM 42.44 41.72 41.18 49.64 42.26 95.0 Not Reported 1.12 SE 1.57 E 4.92 E Yes 0.128 Rain Moderate 05/15/2019 10:58 AM   0.161 0.453 0.673 1.071 1.248 Not Reported Not Reported
05/15/2019 11:13 PM 42.08 41.36 40.64 49.64 42.08 95.0 Not Reported 3.80 NE 5.14 N 7.61 N Yes 0.184 Rain Moderate 05/15/2019 10:58 AM   0.165 0.461 0.689 1.071 1.264 Not Reported Not Reported
05/15/2019 11:18 PM 42.08 41.36 40.64 49.64 42.08 94.0 Not Reported 2.46 NE 3.58 E 7.61 N Yes 0.269 Rain Moderate 05/15/2019 10:58 AM   0.169 0.472 0.709 1.087 1.283 Not Reported Not Reported
05/15/2019 11:23 PM 42.08 41.36 40.64 49.64 41.90 94.0 Not Reported 1.34 NW 3.13 NE 7.61 NE Yes 0.227 Rain Moderate 05/15/2019 10:58 AM   0.169 0.488 0.724 1.098 1.303 Not Reported Not Reported
05/15/2019 11:28 PM 42.08 41.36 40.64 49.64 41.90 94.0 Not Reported 1.12 NE 1.12 SW 7.61 NE Yes 0.184 Rain Moderate 05/15/2019 10:58 AM   0.177 0.488 0.732 1.106 1.323 Not Reported Not Reported
05/15/2019 11:33 PM 41.90 41.18 40.46 49.64 41.90 94.0 Not Reported 2.01 E 1.79 E 3.36 NE Yes 0.269 Rain Moderate 05/15/2019 10:58 AM   0.185 0.500 0.748 1.122 1.343 Not Reported Not Reported
05/15/2019 11:38 PM 41.54 40.82 40.10 49.64 41.54 94.0 Not Reported 3.58 NE 4.47 NW 3.36 NE Yes 0.184 Rain Moderate 05/15/2019 10:58 AM   0.189 0.504 0.764 1.130 1.362 Not Reported Not Reported
05/15/2019 11:43 PM 41.72 41.00 40.28 49.64 41.54 94.0 Not Reported 2.24 NE 0.00 NE 6.26 SW Yes 0.227 Rain Moderate 05/15/2019 10:58 AM   0.201 0.512 0.780 1.146 1.382 Not Reported Not Reported
05/15/2019 11:48 PM 41.72 41.00 40.28 49.64 41.54 94.0 Not Reported 1.79 E 3.36 NE 6.26 SW Yes 0.227 Rain Moderate 05/15/2019 10:58 AM   0.205 0.520 0.787 1.165 1.402 Not Reported Not Reported
05/15/2019 11:53 PM 41.72 41.18 40.46 49.64 41.54 95.0 Not Reported 2.46 SW 2.91 N 3.80 E Yes 0.184 Rain Moderate 05/15/2019 10:58 AM   0.209 0.520 0.787 1.177 1.417 Not Reported Not Reported
05/15/2019 11:58 PM 41.54 41.00 40.28 49.64 41.54 95.0 Not Reported 2.01 NE 1.57 NE 3.80 E Yes 0.128 Rain Moderate 05/15/2019 10:58 AM   0.209 0.520 0.787 1.185 1.429 Not Reported Not Reported